Extreme weather reports worldwide

Lowest temperatures

Station
 
Location
 
Name
 
Wind
Knots
Gust
Knots
Vis
SM
Temp/Dew
C
Baro
inHg
METAR
 
YKS UEEE Yakutsk, RU Yakutsk Airport 2 0.47 -41/-45 30.65 UEEE 182200Z 02001MPS 0750 0700NE R23L/1600U FG NSC M41/M45 Q1038 R23L/490150 NOSIG RMK QFE770
CYUS 4 -38/-43 29.94 CYUS 182200Z AUTO 18004KT 150V260 ////SM //// NCD M38/M43 A2994
CYWE 0 9 -37/-41 30.41 CYWE 182200Z AUTO 00000KT 9SM CLR M37/M41 A3041 RMK SLP375
YRA CYRA Gamètì, CA Rae Lakes Airport 2 15 -37/-41 30.48 CYRA 182200Z 24002KT 15SM SKC M37/M41 A3048 RMK SLP370
OTZ PAOT Kotzebue, US Ralph Wien Memorial Airport 0 10 -37/ 30.20 PAOT 182153Z 00000KT 10SM CLR M37/ A3020 RMK AO2 SLP228 T1372

Station
 
Location
 
Name
 
Wind
Knots
Gust
Knots
Vis
SM
Temp/Dew
C
Baro
inHg
METAR
 
WTK PAWN Noatak, US Noatak Airport 5 10 -36/ 30.22 PAWN 182216Z AUTO 03005KT 10SM CLR M36/ A3022 RMK AO2 FZRANO
DYR UHMA Anadyr, RU Ugolny Airport 6 6.21 -35/-39 30.50 UHMA 182200Z 01003MPS CAVOK M35/M39 Q1033 R01/60D NOSIG RMK TDZ R01/01003MPS END R01/35002G03MPS QFE771/1028
YPX CYPX Puvirnituq, CA Puvirnituq Airport 8 9 -35/-39 29.68 CYPX 182200Z AUTO 14008KT 9SM CLR M35/M39 A2968 RMK SLP057
YKG CYAS Kangirsuk, CA Kangirsuk Airport 9 15 -35/-39 29.50 CYAS 182200Z 28009KT 260V330 15SM FEW170 SCT220 M35/M39 A2950 RMK CS1CI3 SNOW COVER TRACE LOOSE LAST STFD OBS NEXT 191300UTC SLP015
YSG CYLK Lutselk'e, CA Lutselk'e Airport 3 25 -34/-37 30.53 CYLK 182200Z 27003KT 25SM FEW012 M34/M37 A3053 RMK SC1 SLP376
AKV CYKO Akulivik, CA Akulivik Airport 14 20 15 -34/-38 29.66 CYKO 182200Z 13014G20KT 15SM DRSN FEW015 FEW100 M34/M38 A2966 RMK SC1AC1 SC TR SN CVR/MED PACK LAST STFD OBS/NEXT OBS 191300UTC SLP049
CXLL 1 -34/-37 CXLL 182200Z AUTO 03001KT M34/M38 RMK AO1 SOG 53 7015 SLP330 T13401377
YZF CYZF Yellowknife, CA Yellowknife Airport 0 15 -33/-38 30.53 CYZF 182200Z 00000KT 15SM SKC M33/M38 A3053 RMK SLP380
YXN CYXN Whale Cove, CA Whale Cove Airport 19 5 -33/-36 29.87 CYXN 182200Z 35019KT 5SM IC BLSN SKC M33/M36 A2987 RMK SLP118
YRT CYRT Rankin Inlet, CA Rankin Inlet Airport 14 15 -33/-38 29.85 CYRT 182200Z 34014KT 15SM IC DRSN FEW270 M33/M38 A2985 RMK CI2 SLP117
YHI CYHI Ulukhaktok, CA Ulukhaktok Holman Airport 5 15 -33/-37 30.37 CYHI 182200Z 04005KT 15SM FEW040 FEW210 M33/M37 A3037 RMK SC1CS1 SC TR SLP295
YCS CYCS Chesterfield Inlet, CA Chesterfield Inlet Airport 15 15 -33/-37 29.85 CYCS 182200Z 31015KT 15SM DRSN SKC M33/M37 A2985 RMK VIS N-E 3 BR SLP111
ORV PFNO Noorvik, US Robert (Bob) Curtis Memorial Airport 4 9 -33/-36 30.21 PFNO 182156Z AUTO 18004KT 9SM CLR M34/M37 A3021 RMK AO2 SLP324 T13391367 FZRANO
ATK PATQ Atqasuk, US Atqasuk Edward Burnell Sr Memorial Airport 6 1 -33/-36 30.16 PATQ 182156Z AUTO 25006KT 1SM -SN CLR M33/M37 A3016 RMK AO2 SLP222 P0000 T13331367 FZRANO TSNO
ZFM CZFM Fort Mcpherson, CA Fort Mcpherson Airport 2 15 -32/-36 30.23 CZFM 182200Z VRB02KT 15SM SCT084 OVC150 M32/M36 A3023 RMK AS4AS4 SLP246
YZS CYZS Coral Harbour, CA Coral Harbour Airport 15 15 -32/-36 29.62 CYZS 182200Z 01015KT 15SM IC SCT035 M32/M36 A2962 RMK SC4 SLP045
YUT CYUT Repulse Bay, CA Naujaat Airport 19 26 15 -32/-36 29.75 CYUT 182200Z 35019G26KT 15SM DRSN SKC M32/M36 A2975 RMK SLP082
YFR CYFR Fort Resolution, CA Fort Resolution Airport 2 15 -32/-35 30.58 CYFR 182200Z 19002KT 15SM SKC M32/M35 A3058 RMK SLP386
CWMT 4 -32/-35 CWMT 182200Z AUTO 10004KT M32/M36 RMK AO1 SOG 29 6007 SLP357 T13211357
CWIJ 5 -32/-35 CWIJ 182200Z AUTO 23005KT M33/M36 RMK AO1 SOG 41 3007 SLP335 T13261358
AKP PAKP Anaktuvuk Pass, US Anaktuvuk Pass Airport 4 10 -32/-36 29.89 PAKP 182156Z AUTO 05004KT 10SM CLR M33/M37 A2989 RMK AO2 SLP226 T13281367 FZRANO
IAN PAIK Kiana, US Bob Baker Memorial Airport 3 10 -32/-35 30.21 PAIK 182156Z AUTO 29003KT 10SM CLR M32/M35 A3021 RMK AO2 SNE09 SLP237 P0000 T13221350 FZRANO
KVL PAVL Kivalina, US Kivalina Airport 6 10 -32/-34 30.20 PAVL 182153Z AUTO 07006KT 10SM CLR M32/M34 A3020 RMK AO2 SLP226 T13221344 TSNO
UUK PAKU Kuparuk, US Ugnu-Kuparuk Airport 16 2 -32/-35 30.16 PAKU 182146Z 26016KT 2SM R24/P6000FT DRSN BR SKC M32/M35 A3016
PIZ PPIZ Point Lay, US Point Lay LRRS Airport 7 4 -31/-33 30.26 PPIZ 182206Z AUTO 19007KT 4SM -SN SCT015 BKN022 OVC045 M31/M33 A3026 RMK AO2 FZRANO PNO $
ZFN CZFN Tulita, CA Tulita Airport 11 15 -31/-34 30.25 CZFN 182200Z 02011KT 15SM SCT130 M31/M34 A3025 RMK AC3 SLP263
YZG CYZG Salluit, CA Salluit Airport 11 15 -31/-35 29.51 CYZG 182200Z 22011KT 15SM SKC M31/M35 A2951 RMK SLP035
YSM CYSM Fort Smith, CA Fort Smith Airport 3 15 -31/-34 30.56 CYSM 182200Z 28003KT 15SM FEW025 M31/M34 A3056 RMK SC1 SC TR SLP388
YPJ CYLA Aupaluk, CA Aupaluk Airport 11 17 6 -31/-34 29.56 CYLA 182200Z 29011G17KT 6SM IC DRSN SKC M31/M34 A2956 RMK SNW/CVR TRACE LOOSE LAST STFD OBS/NXT 191300Z SLP019
YIO CYIO Pond Inlet, CA Pond Inlet Airport 3 15 -31/-35 29.80 CYIO 182200Z 16003KT 090V170 15SM FEW046 FEW250 M31/M35 A2980 RMK SC1CC1 FROIN SLP106
CPIN 5 -31/-34 30.40 CPIN 182200Z AUTO 21005KT ////SM NCD M31/M34 A3040
WLK PASK Selawik, US Selawik Airport 7 5 -31/-33 30.23 PASK 182156Z AUTO 25007KT 5SM -SN OVC047 M31/M34 A3023 RMK AO2 SLP233 P0000 T13111339 FZRANO
SCC PASC Deadhorse, US Deadhorse Airport 19 3 -31/-35 30.16 PASC 182153Z 22019KT 3SM BLSN BR CLR M31/M35 A3016 RMK AO2 PK WND 23026/2139 SLP217 T13111350 PNO
YBK CYBK Baker Lake, CA Baker Lake Airport 14 21 5 -30/-34 30.04 CYBK 182223Z 32014G21KT 5SM IC BLSN FEW005 M30/M34 A3004 RMK ST1 ST TR SLP180
HTA UIAA Chita, RU Chita-Kadala Airport 0 4.97 -30/-33 30.38 UIAA 182200Z 00000MPS 8000 FEW003 M30/M33 Q1029 R29/410160 NOSIG RMK QBB110 MT OBSC QFE713/0950
CZEV 1 -30/-33 CZEV 182200Z AUTO 24001KT M30/M34 RMK AO1 SOG 33 0000 SLP241 T13021335
YVQ CYVQ Norman Wells, CA Norman Wells Airport 3 30 -30/-34 30.26 CYVQ 182200Z 33003KT 220V010 30SM FEW170 FEW210 SCT240 M30/M34 A3026 RMK AC1CI1CI2 CI TR SLP260
YVP CYVP Kuujjuaq, CA Kuujjuaq Airport 3 15 -30/-35 29.62 CYVP 182200Z 21003KT 210V280 15SM FEW130 SCT250 M30/M35 A2962 RMK AC2CI1 SLP038
YUX CYUX Hall Beach, CA Hall Beach Airport 17 1.5 -30/-33 29.69 CYUX 182200Z 34017KT 1 1/2SM -SN BR SCT047 BKN065 M30/M33 A2969 RMK SC3SC3 SLP056
YSY CYSY Sachs Harbour, CA Sachs Harbour (David Nasogaluak Jr. Saaryuaq) Airport 15 15 -30/-33 30.26 CYSY 182200Z 12015KT 15SM IC DRSN FEW010 SCT040 BKN230 M30/M33 A3026 RMK SC2SC1CI2 SLP265
YRB CYRB Resolute Bay, CA Resolute Bay Airport 25 3 -30/-34 30.02 CYRB 182200Z 35025KT 3SM IC BLSN SKC M30/M34 A3002 RMK PRESFR SLP180
YKJ CYKJ Key Lake, CA Key Lake Airport 8 9 -30/-33 30.26 CYKJ 182200Z AUTO 29008KT 9SM CLR M30/M33 A3026 RMK SLP322
LAK CYKD Aklavik, CA Aklavik/Freddie Carmichael Airport 2 15 -30/-34 30.25 CYKD 182200Z 17002KT 15SM BKN090 M30/M34 A3025 RMK AC7 SLP246
YGT CYGT Igloolik, CA Igloolik Airport 13 15 -30/-33 29.69 CYGT 182200Z 36013KT 15SM DRSN BKN068 M30/M33 A2969 RMK AC6 STFD LAST OBS/NEXT191000Z SLP065
YEV CYEV Inuvik, CA Inuvik Mike Zubko Airport 2 15 -30/-33 30.21 CYEV 182200Z VRB02KT 15SM -SN OVC050 M30/M33 A3021 RMK SC8 VIS N QUAD 4 SLP244